Time;durP1;ratioP1;P1;durP2;ratioP2;P2;SDS_P1;SDS_P2;PMS_P1;PMS_P2;Temp;Humidity;BMP_temperature;BMP_pressure;BME280_temperature;BME280_humidity;BME280_pressure;Samples;Min_cycle;Max_cycle;Signal;HPM_P1;HPM_P2
2021/01/16 00:02:44;;;;;;;5.97;3.23;;;;;;;-3.08;100.00;99231.73;3703534;79;43165;-17
2021/01/16 00:08:00;;;;;;;5.60;3.40;;;;;;;-3.04;100.00;99230.72;3703962;79;43723;-17
2021/01/16 00:13:06;;;;;;;6.10;3.37;;;;;;;-3.08;100.00;99227.78;3703931;79;44078;-18
2021/01/16 00:18:14;;;;;;;6.10;3.23;;;;;;;-3.14;100.00;99231.05;3703426;79;43388;-18
2021/01/16 00:23:23;;;;;;;6.50;3.50;;;;;;;-3.12;100.00;99225.25;3702593;79;43386;-17
2021/01/16 00:28:31;;;;;;;5.53;3.33;;;;;;;-3.11;100.00;99228.76;3716695;77;44083;-17
2021/01/16 00:33:38;;;;;;;6.20;3.63;;;;;;;-3.12;100.00;99223.93;3703503;79;44046;-17
2021/01/16 00:38:44;;;;;;;5.73;3.60;;;;;;;-3.15;100.00;99231.09;3673891;79;43620;-17
2021/01/16 00:43:50;;;;;;;5.50;3.23;;;;;;;-3.18;100.00;99232.55;3652529;80;44078;-17
2021/01/16 00:48:56;;;;;;;6.57;3.67;;;;;;;-3.31;100.00;99228.14;3652692;80;44027;-17
2021/01/16 00:54:02;;;;;;;6.90;3.90;;;;;;;-3.26;100.00;99232.34;3652224;80;43343;-17
2021/01/16 00:59:08;;;;;;;5.30;3.47;;;;;;;-3.28;100.00;99238.11;3664212;80;44102;-17
2021/01/16 01:04:15;;;;;;;5.43;3.20;;;;;;;-3.38;100.00;99231.92;3652182;80;26402;-17
2021/01/16 01:09:21;;;;;;;6.77;3.57;;;;;;;-3.23;100.00;99234.00;3652179;80;44629;-17
2021/01/16 01:14:27;;;;;;;7.40;3.73;;;;;;;-3.27;100.00;99235.04;3652805;80;44110;-17
2021/01/16 01:19:32;;;;;;;5.87;3.23;;;;;;;-3.23;100.00;99237.10;3654493;80;43394;-17
2021/01/16 01:24:38;;;;;;;6.63;3.30;;;;;;;-3.37;100.00;99244.19;3653607;81;43405;-17
2021/01/16 01:29:45;;;;;;;5.50;3.03;;;;;;;-3.39;100.00;99232.36;3654296;80;44165;-17
2021/01/16 01:34:51;;;;;;;6.30;3.90;;;;;;;-3.53;100.00;99236.80;3653237;80;43703;-17
2021/01/16 01:39:57;;;;;;;6.33;3.90;;;;;;;-3.51;100.00;99247.27;3690024;79;44130;-17
2021/01/16 01:45:04;;;;;;;6.17;3.40;;;;;;;-3.51;100.00;99246.83;3706932;80;43425;-17
2021/01/16 01:50:13;;;;;;;5.73;3.50;;;;;;;-3.58;100.00;99247.93;3706600;80;44466;-17
2021/01/16 01:55:19;;;;;;;6.03;3.50;;;;;;;-3.61;100.00;99254.64;3704250;79;44146;-17
2021/01/16 02:00:26;;;;;;;6.70;3.53;;;;;;;-3.63;100.00;99254.67;3703799;79;44078;-17
2021/01/16 02:05:32;;;;;;;6.30;3.67;;;;;;;-3.73;100.00;99254.14;3703923;79;44050;-17
2021/01/16 02:10:37;;;;;;;8.00;3.60;;;;;;;-3.73;100.00;99251.51;3705011;79;43702;-17
2021/01/16 02:15:47;;;;;;;6.40;3.53;;;;;;;-3.91;100.00;99246.83;3703629;79;44464;-17
2021/01/16 02:20:56;;;;;;;6.97;3.70;;;;;;;-3.86;100.00;99250.18;3703835;79;43385;-17
2021/01/16 02:26:24;;;;;;;6.10;3.90;;;;;;;-3.87;100.00;99246.67;3703276;79;43419;-17
2021/01/16 02:31:32;;;;;;;7.80;3.63;;;;;;;-3.82;100.00;99249.15;3703428;79;43347;-17
2021/01/16 02:36:56;;;;;;;7.67;3.73;;;;;;;-4.00;100.00;99245.81;3703547;79;43722;-17
2021/01/16 02:42:05;;;;;;;6.47;3.47;;;;;;;-4.05;100.00;99248.59;3711379;79;43417;-17
2021/01/16 02:47:15;;;;;;;5.20;2.90;;;;;;;-4.11;100.00;99246.14;3706310;79;43382;-17
2021/01/16 02:52:23;;;;;;;6.10;3.60;;;;;;;-4.25;100.00;99251.41;3702393;79;44063;-17
2021/01/16 02:57:29;;;;;;;5.03;3.07;;;;;;;-4.23;100.00;99252.20;3703515;79;43686;-17
2021/01/16 03:02:35;;;;;;;4.47;2.67;;;;;;;-4.29;100.00;99251.08;3703921;79;44436;-17
2021/01/16 03:07:43;;;;;;;5.77;2.80;;;;;;;-4.27;100.00;99253.66;3703468;79;43356;-17
2021/01/16 03:12:49;;;;;;;5.73;3.27;;;;;;;-4.25;100.00;99256.67;3703793;79;44045;-17
2021/01/16 03:17:56;;;;;;;6.97;3.50;;;;;;;-4.36;100.00;99253.52;3724055;79;44029;-17
2021/01/16 03:23:03;;;;;;;5.13;2.73;;;;;;;-4.41;100.00;99246.20;3669861;80;43461;-17
2021/01/16 03:28:10;;;;;;;5.47;3.27;;;;;;;-4.38;100.00;99240.85;3706592;80;44091;-17
2021/01/16 03:33:15;;;;;;;5.30;3.13;;;;;;;-4.44;100.00;99235.33;3705908;80;44103;-17
2021/01/16 03:38:21;;;;;;;5.37;2.73;;;;;;;-4.47;100.00;99239.36;3698078;80;44052;-17
2021/01/16 03:43:27;;;;;;;5.17;2.90;;;;;;;-4.47;100.00;99236.72;3655012;80;43392;-17
2021/01/16 03:48:33;;;;;;;5.97;3.23;;;;;;;-4.49;100.00;99235.91;3652920;80;43507;-18
2021/01/16 03:53:39;;;;;;;6.57;3.40;;;;;;;-4.51;100.00;99234.65;3653270;80;44329;-17
2021/01/16 03:58:45;;;;;;;5.73;3.30;;;;;;;-4.51;100.00;99235.08;3652074;80;43075;-17
2021/01/16 04:03:51;;;;;;;4.53;2.70;;;;;;;-4.69;100.00;99242.62;3651985;80;43409;-17
2021/01/16 04:08:57;;;;;;;6.13;3.30;;;;;;;-4.61;100.00;99242.84;3652429;80;44162;-17
2021/01/16 04:14:03;;;;;;;5.67;3.30;;;;;;;-4.71;100.00;99240.96;3651623;80;43413;-17
2021/01/16 04:19:09;;;;;;;6.53;3.87;;;;;;;-4.75;100.00;99238.84;3650700;80;43467;-17
2021/01/16 04:24:14;;;;;;;4.73;2.97;;;;;;;-4.89;100.00;99237.09;3663570;80;44096;-17
2021/01/16 04:29:20;;;;;;;9.53;3.80;;;;;;;-4.81;100.00;99241.67;3652796;80;43716;-17
2021/01/16 04:34:26;;;;;;;5.37;3.37;;;;;;;-4.89;100.00;99238.41;3652270;80;43694;-18
2021/01/16 04:39:32;;;;;;;5.47;3.43;;;;;;;-4.92;100.00;99231.92;3667993;79;43388;-17
2021/01/16 04:44:41;;;;;;;7.40;3.43;;;;;;;-4.99;100.00;99236.48;3703577;79;42684;-17
2021/01/16 04:49:48;;;;;;;8.63;3.77;;;;;;;-4.98;100.00;99231.64;3703571;79;43730;-16
2021/01/16 04:54:56;;;;;;;6.97;4.07;;;;;;;-5.05;100.00;99232.70;3702865;79;44095;-17
2021/01/16 05:00:02;;;;;;;6.83;3.83;;;;;;;-5.07;100.00;99230.13;3705269;79;43050;-17
2021/01/16 05:05:11;;;;;;;6.80;4.00;;;;;;;-5.08;100.00;99227.09;3703235;79;44463;-17
2021/01/16 05:10:17;;;;;;;10.07;4.10;;;;;;;-5.02;100.00;99226.93;3705291;79;44051;-17
2021/01/16 05:15:23;;;;;;;6.83;4.00;;;;;;;-4.97;100.00;99221.55;3706532;80;44043;-17
2021/01/16 05:20:29;;;;;;;10.07;4.50;;;;;;;-4.96;100.00;99224.11;3706155;79;43373;-17
2021/01/16 05:25:35;;;;;;;9.07;4.70;;;;;;;-4.98;100.00;99223.29;3706621;79;43169;-17
2021/01/16 05:30:55;;;;;;;10.60;4.33;;;;;;;-4.99;100.00;99227.29;3704267;79;43117;-17
2021/01/16 05:36:03;;;;;;;8.50;4.33;;;;;;;-5.00;100.00;99228.19;3708828;79;44006;-16
2021/01/16 05:41:12;;;;;;;7.93;4.23;;;;;;;-5.02;100.00;99230.00;3679542;80;42833;-17
2021/01/16 05:46:18;;;;;;;8.33;4.50;;;;;;;-5.14;100.00;99229.44;3683090;79;43401;-17
2021/01/16 05:51:24;;;;;;;7.93;4.57;;;;;;;-5.10;100.00;99234.15;3683747;79;43414;-17
2021/01/16 05:56:31;;;;;;;7.73;4.47;;;;;;;-5.20;100.00;99234.88;3680503;79;44076;-17
2021/01/16 06:01:39;;;;;;;8.13;4.47;;;;;;;-5.17;100.00;99229.52;3680147;79;44085;-16
2021/01/16 06:06:46;;;;;;;8.67;4.90;;;;;;;-5.19;100.00;99230.47;3679633;79;43999;-16
2021/01/16 06:11:52;;;;;;;9.73;4.90;;;;;;;-5.14;100.00;99228.59;3680599;79;43312;-17
2021/01/16 06:17:01;;;;;;;8.30;5.10;;;;;;;-5.16;100.00;99228.61;3680130;79;43295;-17
2021/01/16 06:22:11;;;;;;;10.17;5.27;;;;;;;-5.13;100.00;99227.69;3681008;79;43438;-18
2021/01/16 06:27:24;;;;;;;9.43;4.70;;;;;;;-5.13;100.00;99222.44;3680051;79;44075;-17
2021/01/16 06:32:30;;;;;;;10.20;4.97;;;;;;;-5.09;100.00;99226.67;3677292;79;44048;-18
2021/01/16 06:37:42;;;;;;;10.93;5.47;;;;;;;-5.16;100.00;99230.39;3679349;79;44081;-17
2021/01/16 06:42:51;;;;;;;9.23;5.27;;;;;;;-5.08;100.00;99228.88;3671916;79;43546;-16
2021/01/16 06:48:00;;;;;;;9.10;5.57;;;;;;;-5.13;100.00;99225.91;3651898;80;44034;-16
2021/01/16 06:53:08;;;;;;;9.10;5.27;;;;;;;-5.14;100.00;99211.05;3640107;80;43320;-17
2021/01/16 06:58:20;;;;;;;9.03;5.73;;;;;;;-5.16;100.00;99207.59;3634291;80;26387;-18
2021/01/16 07:03:28;;;;;;;10.00;5.80;;;;;;;-5.11;100.00;99207.46;3636364;80;44717;-17
2021/01/16 07:08:35;;;;;;;9.03;5.33;;;;;;;-5.14;100.00;99205.79;3637836;80;43456;-18
2021/01/16 07:13:42;;;;;;;11.83;5.80;;;;;;;-5.11;100.00;99207.02;3651489;80;44074;-18
2021/01/16 07:18:49;;;;;;;15.77;6.13;;;;;;;-5.08;100.00;99200.81;3623850;80;43374;-19
2021/01/16 07:23:56;;;;;;;11.77;6.10;;;;;;;-5.08;100.00;99194.71;3619270;81;44078;-19
2021/01/16 07:29:02;;;;;;;12.40;7.10;;;;;;;-5.01;100.00;99187.92;3630429;81;44462;-18
2021/01/16 07:34:08;;;;;;;13.80;6.90;;;;;;;-5.05;100.00;99192.84;3648693;80;44474;-18
2021/01/16 07:39:14;;;;;;;12.13;7.07;;;;;;;-4.99;100.00;99192.66;3652343;80;43460;-18
2021/01/16 07:44:22;;;;;;;15.33;8.27;;;;;;;-4.92;100.00;99174.09;3699730;79;43742;-19
2021/01/16 07:49:30;;;;;;;13.67;6.90;;;;;;;-4.86;100.00;99171.27;3705651;79;43308;-19
2021/01/16 07:54:39;;;;;;;13.83;7.37;;;;;;;-4.87;100.00;99174.80;3704879;79;43480;-19
2021/01/16 07:59:49;;;;;;;12.20;7.30;;;;;;;-4.79;100.00;99164.94;3704049;79;44036;-18
2021/01/16 08:05:08;;;;;;;11.43;6.80;;;;;;;-4.62;100.00;99163.55;3694834;79;44035;-19
2021/01/16 08:10:18;;;;;;;11.23;6.63;;;;;;;-4.60;100.00;99157.80;3704037;79;43166;-19
2021/01/16 08:15:28;;;;;;;15.50;8.63;;;;;;;-4.53;100.00;99152.77;3703500;79;43494;-19
2021/01/16 08:20:39;;;;;;;11.33;6.90;;;;;;;-4.53;100.00;99156.24;3702073;79;43655;-18
2021/01/16 08:25:45;;;;;;;17.63;8.43;;;;;;;-4.59;100.00;99158.20;3715375;79;43683;-19
2021/01/16 08:30:51;;;;;;;15.63;8.47;;;;;;;-4.63;100.00;99142.98;3704413;79;44075;-18
2021/01/16 08:35:57;;;;;;;17.73;8.57;;;;;;;-4.60;100.00;99143.33;3704278;79;44084;-19
2021/01/16 08:41:06;;;;;;;15.23;7.97;;;;;;;-4.62;100.00;99136.81;3696482;79;43338;-18
2021/01/16 08:46:15;;;;;;;13.70;7.77;;;;;;;-4.67;100.00;99139.59;3645811;80;44075;-18
2021/01/16 08:51:33;;;;;;;13.33;7.20;;;;;;;-4.62;100.00;99134.19;3653905;80;44086;-19
2021/01/16 08:56:39;;;;;;;15.97;7.30;;;;;;;-4.75;100.00;99137.63;3654959;78;43713;-19
2021/01/16 09:01:46;;;;;;;14.90;7.60;;;;;;;-4.72;100.00;99123.09;3653614;80;44798;-19
2021/01/16 09:06:52;;;;;;;12.97;7.10;;;;;;;-4.64;100.00;99119.75;3652853;80;43730;-19
2021/01/16 09:12:06;;;;;;;14.17;7.60;;;;;;;-4.54;100.00;99121.65;3655761;81;43255;-19
2021/01/16 09:17:21;;;;;;;15.03;7.27;;;;;;;-4.55;100.00;99112.50;3655728;81;43455;-19
2021/01/16 09:22:29;;;;;;;14.27;7.40;;;;;;;-4.51;100.00;99116.73;3595277;82;44032;-18
2021/01/16 09:27:34;;;;;;;16.23;8.10;;;;;;;-4.49;100.00;99115.80;3631877;80;44048;-18
2021/01/16 09:32:41;;;;;;;15.07;8.20;;;;;;;-4.31;100.00;99120.04;3655194;80;44442;-19
2021/01/16 09:37:47;;;;;;;13.87;7.87;;;;;;;-4.26;100.00;99123.39;3598048;81;43126;-19
2021/01/16 09:42:53;;;;;;;15.07;7.97;;;;;;;-4.24;100.00;99123.33;3655727;80;44038;-19
2021/01/16 09:47:59;;;;;;;13.57;7.73;;;;;;;-3.97;100.00;99124.16;3650056;81;43350;-18
2021/01/16 09:53:06;;;;;;;14.57;7.90;;;;;;;-3.93;100.00;99122.28;3654906;80;43690;-18
2021/01/16 09:58:30;;;;;;;15.07;7.67;;;;;;;-3.92;100.00;99121.38;3652857;80;43494;-19
2021/01/16 10:03:37;;;;;;;13.70;7.43;;;;;;;-3.68;100.00;99111.77;3652806;80;44170;-18
2021/01/16 10:08:44;;;;;;;13.63;7.87;;;;;;;-3.74;100.00;99112.85;3653009;80;43369;-18
2021/01/16 10:13:50;;;;;;;14.83;7.50;;;;;;;-3.56;100.00;99115.29;3652829;80;44559;-17
2021/01/16 10:19:02;;;;;;;12.17;6.97;;;;;;;-3.49;100.00;99097.93;3653796;80;44091;-18
2021/01/16 10:24:19;;;;;;;11.77;6.57;;;;;;;-3.48;100.00;99094.37;3653028;80;43124;-18
2021/01/16 10:29:33;;;;;;;12.00;6.90;;;;;;;-3.38;100.00;99084.38;3653210;80;44057;-18
2021/01/16 10:34:40;;;;;;;13.90;6.80;;;;;;;-3.41;100.00;99086.20;3652693;80;43315;-18
2021/01/16 10:39:49;;;;;;;14.47;7.27;;;;;;;-3.36;100.00;99076.80;3657426;80;43470;-18
2021/01/16 10:44:57;;;;;;;11.67;6.47;;;;;;;-3.27;100.00;99071.66;3688903;79;43323;-22
2021/01/16 10:50:12;;;;;;;11.50;6.53;;;;;;;-3.21;100.00;99058.23;3704277;79;43390;-19
2021/01/16 10:55:18;;;;;;;12.67;6.17;;;;;;;-3.12;100.00;99047.33;3704227;79;44625;-18
2021/01/16 11:00:23;;;;;;;12.07;6.60;;;;;;;-3.31;100.00;99049.84;3704647;79;44502;-18
2021/01/16 11:05:31;;;;;;;11.37;6.13;;;;;;;-3.27;100.00;99047.94;3705650;79;44199;-18
2021/01/16 11:10:37;;;;;;;10.87;6.27;;;;;;;-3.31;100.00;99034.02;3705340;79;43311;-18
2021/01/16 11:15:45;;;;;;;9.40;5.60;;;;;;;-3.21;100.00;99021.33;3728941;79;43682;-18
2021/01/16 11:20:53;;;;;;;8.63;5.27;;;;;;;-3.30;100.00;99011.16;3706950;80;43711;-18
2021/01/16 11:26:01;;;;;;;9.47;5.00;;;;;;;-3.40;100.00;99014.59;3707621;80;44835;-18
2021/01/16 11:31:08;;;;;;;11.30;5.53;;;;;;;-3.46;100.00;99007.78;3707260;80;43403;-18
2021/01/16 11:36:17;;;;;;;9.47;5.40;;;;;;;-3.45;100.00;98998.97;3707572;79;44620;-18
2021/01/16 11:42:01;;;;;;;9.30;5.50;;;;;;;-3.37;100.00;98988.61;3707425;80;44058;-18
2021/01/16 11:47:07;;;;;;;9.80;5.60;;;;;;;-3.35;100.00;98982.83;3540097;83;44066;-17
2021/01/16 11:52:13;;;;;;;8.73;5.40;;;;;;;-3.41;100.00;98982.14;3670540;79;43692;-17
2021/01/16 11:57:22;;;;;;;7.97;4.90;;;;;;;-3.29;100.00;98976.83;3704178;79;43309;-18
2021/01/16 12:02:30;;;;;;;8.70;5.67;;;;;;;-3.34;100.00;98966.07;3704299;79;44020;-18
2021/01/16 12:07:36;;;;;;;9.87;5.37;;;;;;;-3.31;100.00;98968.59;3704010;79;43146;-18
2021/01/16 12:12:42;;;;;;;9.13;5.37;;;;;;;-3.25;100.00;98961.30;3704436;79;44038;-17
2021/01/16 12:17:51;;;;;;;8.63;4.77;;;;;;;-3.17;100.00;98953.54;3703802;79;44082;-18
2021/01/16 12:22:58;;;;;;;8.87;5.47;;;;;;;-3.21;100.00;98939.64;3716739;79;43665;-17
2021/01/16 12:28:07;;;;;;;8.77;5.33;;;;;;;-3.25;100.00;98938.06;3703316;79;43701;-18
2021/01/16 12:33:21;;;;;;;8.20;4.10;;;;;;;-3.19;100.00;98923.31;3697421;79;44631;-18
2021/01/16 12:38:27;;;;;;;8.17;4.97;;;;;;;-3.25;100.00;98926.20;3704255;79;43670;-18
2021/01/16 12:43:32;;;;;;;9.90;5.20;;;;;;;-3.18;100.00;98910.53;3703828;79;43461;-18
2021/01/16 12:48:39;;;;;;;7.60;4.17;;;;;;;-3.18;100.00;98898.67;3704399;79;43335;-18
2021/01/16 12:53:47;;;;;;;8.10;4.73;;;;;;;-3.19;100.00;98898.74;3716729;79;44015;-18
2021/01/16 12:58:53;;;;;;;8.60;5.00;;;;;;;-3.23;100.00;98892.72;3704090;79;43400;-18
2021/01/16 13:04:00;;;;;;;8.33;5.37;;;;;;;-3.19;100.00;98885.09;3703724;79;43717;-19
2021/01/16 13:09:07;;;;;;;8.60;5.10;;;;;;;-3.26;100.00;98878.38;3705380;80;44050;-18
2021/01/16 13:14:13;;;;;;;9.00;5.40;;;;;;;-3.25;100.00;98865.13;3678911;80;43704;-18
2021/01/16 13:19:19;;;;;;;9.07;5.00;;;;;;;-3.21;100.00;98868.48;3676406;79;43443;-18
2021/01/16 13:24:25;;;;;;;8.37;5.37;;;;;;;-3.25;100.00;98866.44;3681975;79;43652;-18
2021/01/16 13:29:35;;;;;;;10.47;5.60;;;;;;;-3.25;100.00;98870.39;3683663;79;44011;-18
2021/01/16 13:34:41;;;;;;;10.43;5.77;;;;;;;-3.27;100.00;98868.75;3678392;79;43783;-19
2021/01/16 13:39:49;;;;;;;10.10;6.27;;;;;;;-3.23;100.00;98859.78;3678274;80;43089;-18
2021/01/16 13:44:59;;;;;;;8.67;5.40;;;;;;;-3.17;100.00;98851.63;3676291;80;44050;-18
2021/01/16 13:50:14;;;;;;;8.17;5.30;;;;;;;-3.13;100.00;98849.72;3678482;79;43388;-18
2021/01/16 13:55:22;;;;;;;10.20;5.13;;;;;;;-3.15;100.00;98843.65;3685054;79;44062;-17
2021/01/16 14:00:28;;;;;;;9.40;5.77;;;;;;;-3.07;100.00;98847.28;3687471;79;43393;-17
2021/01/16 14:05:34;;;;;;;9.43;5.50;;;;;;;-3.19;100.00;98852.16;3689619;79;44084;-17
2021/01/16 14:10:44;;;;;;;9.13;5.10;;;;;;;-3.18;100.00;98847.28;3687240;79;44080;-18
2021/01/16 14:15:57;;;;;;;10.63;5.70;;;;;;;-3.14;100.00;98843.61;3690124;79;43376;-19
2021/01/16 14:21:14;;;;;;;10.70;6.17;;;;;;;-3.10;100.00;98842.53;3686640;79;43477;-18
2021/01/16 14:26:21;;;;;;;11.60;6.60;;;;;;;-3.10;100.00;98826.72;3687642;79;43392;-18
2021/01/16 14:31:28;;;;;;;11.00;6.27;;;;;;;-3.01;100.00;98825.48;3689542;79;43329;-17
2021/01/16 14:36:34;;;;;;;11.47;6.50;;;;;;;-3.07;100.00;98827.07;3688572;79;43434;-17
2021/01/16 14:41:42;;;;;;;10.30;5.43;;;;;;;-3.01;100.00;98824.16;3688842;79;44094;-18
2021/01/16 14:46:59;;;;;;;10.27;5.57;;;;;;;-3.03;100.00;98837.02;3687761;79;44020;-19
2021/01/16 14:52:10;;;;;;;11.60;6.20;;;;;;;-2.95;100.00;98832.27;3689847;79;44388;-18
2021/01/16 14:57:17;;;;;;;11.50;6.53;;;;;;;-2.97;100.00;98832.34;3685270;79;42863;-18
2021/01/16 15:02:25;;;;;;;11.47;6.30;;;;;;;-2.92;100.00;98825.55;3692413;79;44380;-19
2021/01/16 15:07:31;;;;;;;11.00;6.27;;;;;;;-2.94;100.00;98826.08;3703444;79;43385;-18
2021/01/16 15:12:37;;;;;;;14.27;6.47;;;;;;;-2.96;100.00;98818.69;3734312;79;43988;-17
2021/01/16 15:17:43;;;;;;;10.63;6.10;;;;;;;-2.97;100.00;98805.98;3766190;77;44051;-18
2021/01/16 15:22:49;;;;;;;10.80;6.23;;;;;;;-3.01;100.00;98793.84;3707485;79;44071;-17
2021/01/16 15:27:55;;;;;;;12.43;6.70;;;;;;;-3.01;100.00;98795.64;3701321;79;43715;-17
2021/01/16 15:33:04;;;;;;;9.97;5.63;;;;;;;-3.04;100.00;98801.03;3705994;79;43413;-18
2021/01/16 15:38:11;;;;;;;9.07;5.43;;;;;;;-3.08;100.00;98790.22;3701497;79;43247;-17
2021/01/16 15:43:19;;;;;;;14.07;6.10;;;;;;;-3.10;100.00;98780.59;3694446;79;43382;-19
2021/01/16 15:48:25;;;;;;;14.53;7.07;;;;;;;-3.14;100.00;98792.66;3704162;78;43416;-19
2021/01/16 15:53:34;;;;;;;12.30;6.60;;;;;;;-3.10;100.00;98783.23;3653647;80;44000;-19
2021/01/16 15:58:40;;;;;;;11.80;6.47;;;;;;;-3.14;100.00;98784.30;3652243;80;44721;-18
2021/01/16 16:03:47;;;;;;;13.53;6.80;;;;;;;-3.12;100.00;98779.80;3650120;80;43347;-18
2021/01/16 16:08:55;;;;;;;13.47;7.17;;;;;;;-3.11;100.00;98776.24;3651255;80;44400;-18
2021/01/16 16:14:02;;;;;;;11.77;6.63;;;;;;;-3.19;100.00;98776.20;3651475;80;44028;-18
2021/01/16 16:19:08;;;;;;;12.80;6.90;;;;;;;-3.13;100.00;98775.92;3654548;80;44031;-18
2021/01/16 16:24:17;;;;;;;11.87;6.50;;;;;;;-3.14;100.00;98776.84;3656391;80;43683;-19
2021/01/16 16:29:23;;;;;;;12.33;6.70;;;;;;;-3.13;100.00;98770.20;3651806;80;44538;-18
2021/01/16 16:34:29;;;;;;;11.50;6.30;;;;;;;-3.13;100.00;98767.57;3651675;80;44067;-18
2021/01/16 16:39:35;;;;;;;12.67;6.57;;;;;;;-3.14;100.00;98767.63;3639966;80;43391;-19
2021/01/16 16:44:41;;;;;;;14.13;6.93;;;;;;;-3.14;100.00;98754.44;3636444;80;43121;-19
2021/01/16 16:49:47;;;;;;;13.23;7.20;;;;;;;-3.13;100.00;98755.72;3637381;80;42896;-18
2021/01/16 16:54:53;;;;;;;14.00;6.70;;;;;;;-3.07;100.00;98747.12;3635531;80;43410;-19
2021/01/16 16:59:59;;;;;;;12.70;6.83;;;;;;;-3.01;100.00;98747.71;3634921;80;43739;-18
2021/01/16 17:05:08;;;;;;;12.13;6.47;;;;;;;-3.01;100.00;98741.60;3635256;80;44460;-19
2021/01/16 17:10:16;;;;;;;13.03;6.90;;;;;;;-2.99;100.00;98731.81;3630794;80;43393;-18
2021/01/16 17:15:22;;;;;;;12.77;6.80;;;;;;;-2.95;100.00;98729.00;3623144;81;44657;-19
2021/01/16 17:20:29;;;;;;;11.97;6.33;;;;;;;-2.89;100.00;98729.19;3621365;81;43688;-19
2021/01/16 17:25:35;;;;;;;12.10;7.17;;;;;;;-2.86;100.00;98719.80;3635784;80;43686;-19
2021/01/16 17:30:42;;;;;;;14.10;6.53;;;;;;;-2.83;100.00;98721.47;3631115;80;44091;-19
2021/01/16 17:35:48;;;;;;;12.33;6.93;;;;;;;-2.80;100.00;98716.91;3624171;81;43778;-19
2021/01/16 17:40:54;;;;;;;13.93;7.50;;;;;;;-2.81;100.00;98709.91;3630457;80;43289;-19
2021/01/16 17:46:00;;;;;;;13.57;7.93;;;;;;;-2.81;100.00;98713.87;3659734;80;43077;-19
2021/01/16 17:51:07;;;;;;;15.07;7.70;;;;;;;-2.80;100.00;98710.31;3706922;79;43677;-19
2021/01/16 17:56:19;;;;;;;14.43;8.23;;;;;;;-2.80;100.00;98707.67;3703852;79;43421;-19
2021/01/16 18:01:25;;;;;;;15.10;8.10;;;;;;;-2.75;100.00;98693.40;3707886;79;43353;-19
2021/01/16 18:06:32;;;;;;;14.53;7.97;;;;;;;-2.74;100.00;98693.34;3701681;79;43365;-19
2021/01/16 18:11:38;;;;;;;20.30;10.17;;;;;;;-2.72;100.00;98686.67;3683984;79;44867;-19
2021/01/16 18:16:43;;;;;;;23.33;12.37;;;;;;;-2.73;100.00;98691.11;3687551;79;43698;-18
2021/01/16 18:21:50;;;;;;;25.80;13.40;;;;;;;-2.74;100.00;98677.97;3679234;79;44019;-18
2021/01/16 18:26:58;;;;;;;20.73;11.43;;;;;;;-2.75;100.00;98672.30;3685665;79;44057;-19
2021/01/16 18:32:04;;;;;;;17.63;10.00;;;;;;;-2.76;100.00;98687.28;3687513;79;44701;-19
2021/01/16 18:37:10;;;;;;;20.20;10.63;;;;;;;-2.76;100.00;98678.53;3695107;77;43697;-24
2021/01/16 18:42:16;;;;;;;20.80;10.93;;;;;;;-2.74;100.00;98681.92;3687827;79;44103;-20
2021/01/16 18:47:22;;;;;;;14.73;7.70;;;;;;;-2.70;100.00;98676.44;3689031;79;43647;-17
2021/01/16 18:52:32;;;;;;;13.53;7.97;;;;;;;-2.73;100.00;98673.09;3688032;79;44830;-17
2021/01/16 18:57:39;;;;;;;15.10;7.90;;;;;;;-2.75;100.00;98677.13;3702262;79;44058;-18
2021/01/16 19:02:45;;;;;;;16.37;8.33;;;;;;;-2.66;100.00;98669.27;3702945;79;43187;-18
2021/01/16 19:07:51;;;;;;;15.87;8.27;;;;;;;-2.71;100.00;98657.61;3702284;79;43455;-18
2021/01/16 19:12:58;;;;;;;17.67;9.20;;;;;;;-2.75;100.00;98652.52;3747822;77;43410;-19
2021/01/16 19:18:05;;;;;;;16.07;9.77;;;;;;;-2.75;100.00;98655.16;3760986;79;43519;-18
2021/01/16 19:23:10;;;;;;;18.63;9.97;;;;;;;-2.72;100.00;98648.44;3705961;80;43386;-20
2021/01/16 19:28:18;;;;;;;16.00;8.97;;;;;;;-2.73;100.00;98645.41;3705714;79;43846;-20
2021/01/16 19:33:23;;;;;;;16.77;9.00;;;;;;;-2.74;100.00;98641.92;3703055;79;43354;-18
2021/01/16 19:38:30;;;;;;;19.13;10.07;;;;;;;-2.76;100.00;98643.77;3700316;79;44094;-19
2021/01/16 19:43:35;;;;;;;14.47;8.80;;;;;;;-2.76;100.00;98637.18;3702797;79;44224;-20
2021/01/16 19:48:41;;;;;;;12.60;7.60;;;;;;;-2.75;100.00;98630.11;3726151;79;44440;-20
2021/01/16 19:53:47;;;;;;;15.97;8.90;;;;;;;-2.76;100.00;98622.68;3707119;79;44609;-18
2021/01/16 19:58:53;;;;;;;15.10;8.93;;;;;;;-2.76;100.00;98627.95;3705363;79;43357;-18
2021/01/16 20:03:59;;;;;;;16.30;8.50;;;;;;;-2.79;100.00;98621.49;3696488;79;44047;-19
2021/01/16 20:09:07;;;;;;;17.27;10.50;;;;;;;-2.77;100.00;98612.22;3703733;79;45082;-20
2021/01/16 20:14:13;;;;;;;17.50;10.00;;;;;;;-2.81;100.00;98613.67;3704143;79;44051;-19
2021/01/16 20:19:19;;;;;;;18.27;9.80;;;;;;;-2.89;100.00;98615.82;3708348;79;43596;-19
2021/01/16 20:24:25;;;;;;;20.87;11.40;;;;;;;-2.90;100.00;98608.84;3702874;79;43549;-19
2021/01/16 20:29:31;;;;;;;27.53;15.30;;;;;;;-2.88;100.00;98613.55;3697289;79;44504;-19
2021/01/16 20:34:36;;;;;;;18.03;10.50;;;;;;;-2.97;100.00;98608.71;3705064;79;44141;-19
2021/01/16 20:39:43;;;;;;;15.00;8.57;;;;;;;-3.02;100.00;98601.02;3704726;79;44026;-19
2021/01/16 20:44:49;;;;;;;14.90;7.83;;;;;;;-3.11;100.00;98598.34;3699685;79;43363;-19
2021/01/16 20:49:55;;;;;;;13.23;6.80;;;;;;;-3.14;100.00;98599.83;3704289;79;44039;-18
2021/01/16 20:55:02;;;;;;;11.30;6.33;;;;;;;-3.17;100.00;98598.64;3700039;79;42630;-19
2021/01/16 21:00:10;;;;;;;12.53;6.87;;;;;;;-3.15;100.00;98595.92;3695366;79;44024;-19
2021/01/16 21:05:17;;;;;;;12.33;6.57;;;;;;;-3.14;100.00;98595.88;3696259;79;43357;-18
2021/01/16 21:10:22;;;;;;;10.20;5.43;;;;;;;-3.10;100.00;98589.98;3682401;79;43747;-18
2021/01/16 21:15:28;;;;;;;15.57;7.30;;;;;;;-3.07;100.00;98590.30;3676794;80;43377;-18
2021/01/16 21:20:34;;;;;;;13.37;7.07;;;;;;;-3.08;100.00;98584.63;3675156;80;44683;-19
2021/01/16 21:25:40;;;;;;;13.37;7.10;;;;;;;-3.11;100.00;98577.26;3682393;79;42781;-18
2021/01/16 21:30:46;;;;;;;13.60;6.97;;;;;;;-3.14;100.00;98567.33;3680356;79;44548;-18
2021/01/16 21:35:53;;;;;;;13.57;7.07;;;;;;;-3.23;100.00;98563.33;3693007;79;43435;-18
2021/01/16 21:40:59;;;;;;;12.23;6.73;;;;;;;-3.33;100.00;98558.97;3705236;80;44193;-18
2021/01/16 21:46:05;;;;;;;10.23;5.67;;;;;;;-3.33;100.00;98558.97;3704517;80;44257;-18
2021/01/16 21:51:13;;;;;;;10.97;5.87;;;;;;;-3.33;100.00;98558.09;3646722;80;44075;-20
2021/01/16 21:56:18;;;;;;;9.73;5.43;;;;;;;-3.29;100.00;98557.89;3652719;80;43682;-20
2021/01/16 22:01:24;;;;;;;11.03;6.03;;;;;;;-3.30;100.00;98545.66;3658813;80;43999;-20
2021/01/16 22:06:39;;;;;;;13.07;6.10;;;;;;;-3.23;100.00;98545.36;3651234;80;45079;-18
2021/01/16 22:11:47;;;;;;;11.70;5.80;;;;;;;-3.24;100.00;98541.89;3651399;80;44062;-18
2021/01/16 22:16:53;;;;;;;12.63;5.93;;;;;;;-3.24;100.00;98544.52;3651511;80;44057;-21
2021/01/16 22:21:59;;;;;;;11.83;6.63;;;;;;;-3.27;100.00;98539.39;3652484;80;43694;-20
2021/01/16 22:27:05;;;;;;;9.93;5.77;;;;;;;-3.28;100.00;98539.00;3652390;80;43716;-20
2021/01/16 22:32:11;;;;;;;10.67;5.80;;;;;;;-3.28;100.00;98539.00;3652058;80;44153;-19
2021/01/16 22:37:18;;;;;;;10.63;5.93;;;;;;;-3.30;100.00;98531.63;3664284;80;43686;-20
2021/01/16 22:42:24;;;;;;;11.13;5.77;;;;;;;-3.30;100.00;98529.86;3652817;80;44024;-21
2021/01/16 22:47:30;;;;;;;8.87;5.57;;;;;;;-3.30;100.00;98514.49;3652248;80;43796;-20
2021/01/16 22:52:37;;;;;;;10.90;6.00;;;;;;;-3.35;100.00;98523.09;3674819;79;43729;-20
2021/01/16 22:57:43;;;;;;;10.30;5.40;;;;;;;-3.32;100.00;98521.61;3680148;79;44038;-20
2021/01/16 23:02:49;;;;;;;11.20;5.97;;;;;;;-3.31;100.00;98510.15;3680586;79;44043;-20
2021/01/16 23:07:55;;;;;;;7.00;4.50;;;;;;;-3.35;100.00;98508.13;3679978;79;44185;-20
2021/01/16 23:13:01;;;;;;;8.00;4.87;;;;;;;-3.39;100.00;98497.33;3681168;79;43083;-20
2021/01/16 23:18:11;;;;;;;7.90;4.30;;;;;;;-3.37;100.00;98493.33;3681142;80;43769;-20
2021/01/16 23:23:19;;;;;;;9.13;4.87;;;;;;;-3.36;100.00;98492.41;3683893;80;43035;-20
2021/01/16 23:28:26;;;;;;;8.53;4.67;;;;;;;-3.36;100.00;98488.45;3683495;80;44077;-20
2021/01/16 23:33:33;;;;;;;6.57;4.23;;;;;;;-3.31;100.00;98490.39;3683972;80;44437;-20
2021/01/16 23:38:39;;;;;;;6.77;4.10;;;;;;;-3.32;100.00;98486.91;3680920;79;44055;-20